createdAt,value
2019-04-01T00:01:53.900Z,1.70
2019-04-01T00:04:22.883Z,1.22
2019-04-01T00:06:51.879Z,1.37
2019-04-01T00:09:20.668Z,1.42
2019-04-01T00:11:49.577Z,1.30
2019-04-01T00:14:18.461Z,1.60
2019-04-01T00:16:47.461Z,1.30
2019-04-01T00:19:16.252Z,1.22
2019-04-01T00:21:45.041Z,1.47
2019-04-01T00:24:13.937Z,1.37
2019-04-01T00:26:42.834Z,2.00
2019-04-01T00:29:11.834Z,1.70
2019-04-01T00:31:40.554Z,1.30
2019-04-01T00:34:09.516Z,1.60
2019-04-01T00:36:38.260Z,1.87
2019-04-01T00:39:07.660Z,1.00
2019-04-01T00:41:38.250Z,0.98
2019-04-01T00:44:08.782Z,1.27
2019-04-01T00:46:37.592Z,1.30
2019-04-01T00:49:06.361Z,1.27
2019-04-01T00:51:35.258Z,1.10
2019-04-01T00:54:04.156Z,1.35
2019-04-01T00:56:33.154Z,1.20
2019-04-01T00:59:02.149Z,1.05
2019-04-01T01:01:30.889Z,1.52
2019-04-01T01:03:59.842Z,1.50
2019-04-01T01:06:28.726Z,1.27
2019-04-01T01:08:57.525Z,1.60
2019-04-01T01:11:26.537Z,1.30
2019-04-01T01:13:55.518Z,1.20
2019-04-01T01:16:24.415Z,1.30
2019-04-01T01:18:53.207Z,1.10
2019-04-01T01:21:21.985Z,1.12
2019-04-01T01:23:50.892Z,1.47
2019-04-01T01:26:19.686Z,1.20
2019-04-01T01:28:48.683Z,1.12
2019-04-01T01:31:17.579Z,1.40
2019-04-01T01:33:46.467Z,1.22
2019-04-01T01:36:15.362Z,2.02
2019-04-01T01:38:44.260Z,1.60
2019-04-01T01:41:13.018Z,1.40
2019-04-01T01:43:41.845Z,1.27
2019-04-01T01:46:10.738Z,1.62
2019-04-01T01:48:41.101Z,1.25
2019-04-01T01:51:09.964Z,1.40
2019-04-01T01:53:41.455Z,1.20
2019-04-01T01:56:09.386Z,1.80
2019-04-01T01:58:38.171Z,1.20
2019-04-01T02:01:07.046Z,1.32
2019-04-01T02:03:35.973Z,1.50
2019-04-01T02:06:04.739Z,1.37
2019-04-01T02:08:33.494Z,1.32
2019-04-01T02:11:02.455Z,1.95
2019-04-01T02:13:31.555Z,1.17
2019-04-01T02:16:00.446Z,1.10
2019-04-01T02:18:29.345Z,1.25
2019-04-01T02:20:58.232Z,1.07
2019-04-01T02:23:27.233Z,1.47
2019-04-01T02:25:56.335Z,1.52
2019-04-01T02:28:25.229Z,1.42
2019-04-01T02:30:54.019Z,1.40
2019-04-01T02:33:22.771Z,1.37
2019-04-01T02:35:51.605Z,1.90
2019-04-01T02:38:20.607Z,1.45
2019-04-01T02:40:49.601Z,1.75
2019-04-01T02:43:18.497Z,1.10
2019-04-01T02:45:47.264Z,1.50
2019-04-01T02:48:16.022Z,1.75
2019-04-01T02:50:44.868Z,1.50
2019-04-01T02:53:13.767Z,1.50
2019-04-01T02:55:42.771Z,3.20
2019-04-01T02:58:11.552Z,1.67
2019-04-01T03:00:40.657Z,1.70
2019-04-01T03:03:10.412Z,1.55
2019-04-01T03:05:39.126Z,1.82
2019-04-01T03:08:08.059Z,1.60
2019-04-01T03:10:36.946Z,1.65
2019-04-01T03:13:05.745Z,1.60
2019-04-01T03:15:34.647Z,2.50
2019-04-01T03:18:03.763Z,1.57
2019-04-01T03:20:32.646Z,1.70
2019-04-01T03:23:01.434Z,1.70
2019-04-01T03:25:30.216Z,1.60
2019-04-01T03:27:59.221Z,1.65
2019-04-01T03:30:28.213Z,1.57
2019-04-01T03:32:57.108Z,1.75
2019-04-01T03:35:25.928Z,1.67
2019-04-01T03:37:54.794Z,1.67
2019-04-01T03:40:23.688Z,1.50
2019-04-01T03:42:52.590Z,1.80
2019-04-01T03:45:21.394Z,1.57
2019-04-01T03:47:50.246Z,1.45
2019-04-01T03:50:19.038Z,1.35
2019-04-01T03:52:47.810Z,2.27
2019-04-01T03:55:16.707Z,1.75
2019-04-01T03:57:45.543Z,1.90
2019-04-01T04:00:14.723Z,2.45
2019-04-01T04:02:43.498Z,1.70
2019-04-01T04:05:12.248Z,1.90
2019-04-01T04:07:41.037Z,2.05
2019-04-01T04:10:09.911Z,2.08
2019-04-01T04:12:38.686Z,2.05
2019-04-01T04:15:07.594Z,1.95
2019-04-01T04:17:36.382Z,1.75
2019-04-01T04:20:06.066Z,2.25
2019-04-01T04:22:34.960Z,2.60
2019-04-01T04:25:04.396Z,2.33
2019-04-01T04:27:33.169Z,1.80
2019-04-01T04:30:02.062Z,1.77
2019-04-01T04:32:30.832Z,1.77
2019-04-01T04:34:59.667Z,1.77
2019-04-01T04:37:28.563Z,2.30
2019-04-01T04:39:57.392Z,2.00
2019-04-01T04:42:26.269Z,2.15
2019-04-01T04:44:55.020Z,1.90
2019-04-01T04:47:23.906Z,1.87
2019-04-01T04:49:52.693Z,1.80
2019-04-01T04:52:21.439Z,2.80
2019-04-01T04:54:51.801Z,2.65
2019-04-01T04:57:20.655Z,3.22
2019-04-01T04:59:49.458Z,2.50
2019-04-01T05:02:18.356Z,2.70
2019-04-01T05:04:47.223Z,2.50
2019-04-01T05:07:16.042Z,2.33
2019-04-01T05:09:44.913Z,1.90
2019-04-01T05:12:13.783Z,2.92
2019-04-01T05:14:42.681Z,1.90
2019-04-01T05:17:11.555Z,1.50
2019-04-01T05:19:40.390Z,1.60
2019-04-01T05:22:09.845Z,2.00
2019-04-01T05:24:39.293Z,1.42
2019-04-01T05:27:09.905Z,1.52
2019-04-01T05:29:40.573Z,1.42
2019-04-01T05:32:11.278Z,1.70
2019-04-01T05:34:41.617Z,3.02
2019-04-01T05:37:12.025Z,4.83
2019-04-01T05:39:40.851Z,1.92
2019-04-01T05:42:09.651Z,1.50
2019-04-01T05:44:39.144Z,1.30
2019-04-01T05:47:08.271Z,1.80
2019-04-01T05:49:37.439Z,2.30
2019-04-01T05:52:06.283Z,1.90
2019-04-01T05:54:35.157Z,1.30
2019-04-01T05:57:03.949Z,1.90
2019-04-01T05:59:32.835Z,22.35
2019-04-01T06:02:01.705Z,3.10
2019-04-01T06:04:30.501Z,1.65
2019-04-01T06:06:59.319Z,1.80
2019-04-01T06:09:28.095Z,2.92
2019-04-01T06:11:57.132Z,1.98
2019-04-01T06:14:25.982Z,1.57
2019-04-01T06:16:55.343Z,1.98
2019-04-01T06:19:24.234Z,2.27
2019-04-01T06:21:54.161Z,1.82
2019-04-01T06:24:24.655Z,1.35
2019-04-01T06:26:53.599Z,1.42
2019-04-01T06:29:22.548Z,1.50
2019-04-01T06:31:51.764Z,1.95
2019-04-01T06:34:22.129Z,1.65
2019-04-01T06:36:50.926Z,1.40
2019-04-01T06:39:19.697Z,1.50
2019-04-01T06:41:49.007Z,1.57
2019-04-01T06:44:17.812Z,1.15
2019-04-01T06:46:46.780Z,1.50
2019-04-01T06:49:15.671Z,1.30
2019-04-01T06:51:44.446Z,1.32
2019-04-01T06:54:13.333Z,1.80
2019-04-01T06:56:42.152Z,1.47
2019-04-01T06:59:10.927Z,1.50
2019-04-01T07:01:39.674Z,1.40
2019-04-01T07:04:08.475Z,1.62
2019-04-01T07:06:37.570Z,1.47
2019-04-01T07:09:07.028Z,1.30
2019-04-01T07:11:35.863Z,1.60
2019-04-01T07:14:05.575Z,1.62
2019-04-01T07:16:34.421Z,2.92
2019-04-01T07:19:03.232Z,1.60
2019-04-01T07:21:31.988Z,1.50
2019-04-01T07:24:00.791Z,1.60
2019-04-01T07:26:29.567Z,1.65
2019-04-01T07:28:58.357Z,1.77
2019-04-01T07:31:27.117Z,1.80
2019-04-01T07:33:55.954Z,1.85
2019-04-01T07:36:26.401Z,2.87
2019-04-01T07:38:55.287Z,1.80
2019-04-01T07:41:24.186Z,1.67
2019-04-01T07:43:53.021Z,1.80
2019-04-01T07:46:21.869Z,2.40
2019-04-01T07:48:50.852Z,1.65
2019-04-01T07:51:19.687Z,2.10
2019-04-01T07:53:48.763Z,1.77
2019-04-01T07:56:17.597Z,1.60
2019-04-01T07:58:46.902Z,1.52
2019-04-01T08:01:15.673Z,1.52
2019-04-01T08:03:44.908Z,3.15
2019-04-01T08:06:13.790Z,2.30
2019-04-01T08:08:46.058Z,1.52
2019-04-01T08:11:13.069Z,1.35
2019-04-01T08:13:41.895Z,2.20
2019-04-01T08:16:10.721Z,1.80
2019-04-01T08:18:39.501Z,2.30
2019-04-01T08:21:08.410Z,1.82
2019-04-01T08:23:37.364Z,1.82
2019-04-01T08:26:06.225Z,1.82
2019-04-01T08:28:34.983Z,1.62
2019-04-01T08:31:03.779Z,1.98
2019-04-01T08:33:32.690Z,1.25
2019-04-01T08:36:01.595Z,1.32
2019-04-01T08:38:30.408Z,1.30
2019-04-01T08:40:59.254Z,1.90
2019-04-01T08:43:28.042Z,1.55
2019-04-01T08:45:56.904Z,1.35
2019-04-01T08:48:25.758Z,1.45
2019-04-01T08:50:54.548Z,1.20
2019-04-01T08:53:23.384Z,1.50
2019-04-01T08:56:00.262Z,1.27
2019-04-01T08:58:22.833Z,1.20
2019-04-01T09:00:51.699Z,1.50
2019-04-01T09:03:20.492Z,1.22
2019-04-01T09:05:49.326Z,1.12
2019-04-01T09:08:18.242Z,2.10
2019-04-01T09:10:47.254Z,1.65
2019-04-01T09:13:16.446Z,1.42
2019-04-01T09:15:45.598Z,1.47
2019-04-01T09:18:14.402Z,1.45
2019-04-01T09:20:43.222Z,1.57
2019-04-01T09:23:12.013Z,1.98
2019-04-01T09:25:40.919Z,1.52
2019-04-01T09:28:09.762Z,1.37
2019-04-01T09:30:38.658Z,2.00
2019-04-01T09:33:07.447Z,1.45
2019-04-01T09:35:36.250Z,2.00
2019-04-01T09:38:05.033Z,1.10
2019-04-01T09:40:33.818Z,1.17
2019-04-01T09:43:02.708Z,1.15
2019-04-01T09:45:31.552Z,1.10
2019-04-01T09:48:00.343Z,1.30
2019-04-01T09:50:29.138Z,1.22
2019-04-01T09:52:57.953Z,1.02
2019-04-01T09:55:26.768Z,0.82
2019-04-01T09:57:55.618Z,1.20
2019-04-01T10:00:24.392Z,1.30
2019-04-01T10:02:53.194Z,0.90
2019-04-01T10:05:22.066Z,1.22
2019-04-01T10:07:50.956Z,0.85
2019-04-01T10:10:20.052Z,1.30
2019-04-01T10:12:48.851Z,1.62
2019-04-01T10:15:17.610Z,1.05
2019-04-01T10:17:46.406Z,1.98
2019-04-01T10:20:15.494Z,1.15
2019-04-01T10:22:44.266Z,1.22
2019-04-01T10:25:13.068Z,1.60
2019-04-01T10:27:41.857Z,1.50
2019-04-01T10:30:11.512Z,1.50
2019-04-01T10:32:40.290Z,1.57
2019-04-01T10:35:10.073Z,0.75
2019-04-01T10:37:39.014Z,1.02
2019-04-01T10:40:08.314Z,0.93
2019-04-01T10:42:37.157Z,1.70
2019-04-01T10:45:09.136Z,1.35
2019-04-01T10:47:38.025Z,0.80
2019-04-01T10:50:07.878Z,0.88
2019-04-01T10:52:36.667Z,0.85
2019-04-01T10:55:06.852Z,0.93
2019-04-01T10:57:35.737Z,1.25
2019-04-01T11:00:09.422Z,0.90
2019-04-01T11:02:38.310Z,1.12
2019-04-01T11:05:07.862Z,1.10
2019-04-01T11:07:36.603Z,1.22
2019-04-01T11:10:11.719Z,1.12
2019-04-01T11:12:40.161Z,0.78
2019-04-01T11:15:09.244Z,1.57
2019-04-01T11:17:38.023Z,1.20
2019-04-01T11:20:08.232Z,1.20
2019-04-01T11:22:37.387Z,1.30
2019-04-01T11:25:07.584Z,1.75
2019-04-01T11:27:36.647Z,0.90
2019-04-01T11:30:07.708Z,0.65
2019-04-01T11:32:37.311Z,0.90
2019-04-01T11:35:07.877Z,1.07
2019-04-01T11:37:36.747Z,1.37
2019-04-01T11:40:11.038Z,1.17
2019-04-01T11:42:40.448Z,1.30
2019-04-01T11:45:09.428Z,1.17
2019-04-01T11:47:38.260Z,1.20
2019-04-01T11:50:07.610Z,1.27
2019-04-01T11:52:38.025Z,1.12
2019-04-01T11:55:08.870Z,1.50
2019-04-01T11:57:38.498Z,2.00
2019-04-01T12:00:13.396Z,1.55
2019-04-01T12:02:42.537Z,3.25
2019-04-01T12:05:11.619Z,3.80
2019-04-01T12:07:40.429Z,2.72
2019-04-01T12:10:09.617Z,2.98
2019-04-01T12:12:38.398Z,1.60
2019-04-01T12:15:11.896Z,1.72
2019-04-01T12:17:41.613Z,1.90
2019-04-01T12:20:10.251Z,1.55
2019-04-01T12:22:40.608Z,1.70
2019-04-01T12:25:09.821Z,1.52
2019-04-01T12:27:38.669Z,1.42
2019-04-01T12:30:08.296Z,1.40
2019-04-01T12:32:37.062Z,1.15
2019-04-01T12:35:06.911Z,1.22
2019-04-01T12:37:35.639Z,1.65
2019-04-01T12:40:06.155Z,1.30
2019-04-01T12:42:34.964Z,1.40
2019-04-01T12:45:05.183Z,1.17
2019-04-01T12:47:33.973Z,1.17
2019-04-01T12:50:02.840Z,1.30
2019-04-01T12:52:31.613Z,1.47
2019-04-01T12:55:01.086Z,1.70
2019-04-01T12:57:30.074Z,1.32
2019-04-01T12:59:58.887Z,1.37
2019-04-01T13:02:27.696Z,1.75
2019-04-01T13:04:56.464Z,1.25
2019-04-01T13:07:25.301Z,1.30
2019-04-01T13:09:54.049Z,2.22
2019-04-01T13:12:22.901Z,1.57
2019-04-01T13:14:55.304Z,1.72
2019-04-01T13:17:22.150Z,1.20
2019-04-01T13:19:50.960Z,1.60
2019-04-01T13:22:19.803Z,1.60
2019-04-01T13:24:48.595Z,1.65
2019-04-01T13:27:17.402Z,1.92
2019-04-01T13:29:46.139Z,1.20
2019-04-01T13:32:14.955Z,1.98
2019-04-01T13:34:43.845Z,1.50
2019-04-01T13:37:12.724Z,1.50
2019-04-01T13:39:41.542Z,2.25
2019-04-01T13:42:10.369Z,1.95
2019-04-01T13:44:39.272Z,1.47
2019-04-01T13:47:08.051Z,1.80
2019-04-01T13:49:36.853Z,1.60
2019-04-01T13:52:05.785Z,1.75
2019-04-01T13:54:34.593Z,1.85
2019-04-01T13:57:03.363Z,1.87
2019-04-01T13:59:32.218Z,1.82
2019-04-01T14:02:00.998Z,2.15
2019-04-01T14:04:29.792Z,1.80
2019-04-01T14:06:58.646Z,1.32
2019-04-01T14:09:30.714Z,1.80
2019-04-01T14:11:58.039Z,1.52
2019-04-01T14:14:26.852Z,1.62
2019-04-01T14:16:55.607Z,4.55
2019-04-01T14:19:24.502Z,1.80
2019-04-01T14:21:53.324Z,1.82
2019-04-01T14:24:22.404Z,1.90
2019-04-01T14:26:51.215Z,1.90
2019-04-01T14:29:20.090Z,1.95
2019-04-01T14:31:48.877Z,1.30
2019-04-01T14:34:23.244Z,1.40
2019-04-01T14:36:48.240Z,1.87
2019-04-01T14:39:16.996Z,1.87
2019-04-01T14:41:45.844Z,1.20
2019-04-01T14:44:14.631Z,1.25
2019-04-01T14:46:43.436Z,1.20
2019-04-01T14:49:12.249Z,1.25
2019-04-01T14:51:41.834Z,1.30
2019-04-01T14:54:11.390Z,1.22
2019-04-01T14:56:40.193Z,1.40
2019-04-01T14:59:09.104Z,1.30
2019-04-01T15:01:37.920Z,1.60
2019-04-01T15:04:06.690Z,1.32
2019-04-01T15:06:35.510Z,1.42
2019-04-01T15:09:06.989Z,1.60
2019-04-01T15:11:35.943Z,1.35
2019-04-01T15:14:04.902Z,1.60
2019-04-01T15:16:33.717Z,1.77
2019-04-01T15:19:02.519Z,1.45
2019-04-01T15:21:31.379Z,1.55
2019-04-01T15:24:00.143Z,1.57
2019-04-01T15:26:28.930Z,1.60
2019-04-01T15:28:57.671Z,1.70
2019-04-01T15:31:26.490Z,1.75
2019-04-01T15:33:55.303Z,2.20
2019-04-01T15:36:24.153Z,2.12
2019-04-01T15:38:52.930Z,2.20
2019-04-01T15:41:21.730Z,1.82
2019-04-01T15:43:50.498Z,2.40
2019-04-01T15:46:19.330Z,2.00
2019-04-01T15:48:48.123Z,2.22
2019-04-01T15:51:17.019Z,2.20
2019-04-01T15:53:45.840Z,2.58
2019-04-01T15:56:14.649Z,2.10
2019-04-01T15:58:43.496Z,2.90
2019-04-01T16:01:12.370Z,2.62
2019-04-01T16:03:41.191Z,2.40
2019-04-01T16:06:10.103Z,2.10
2019-04-01T16:08:38.974Z,2.40
2019-04-01T16:11:07.857Z,2.00
2019-04-01T16:13:36.598Z,2.77
2019-04-01T16:16:07.058Z,2.40
2019-04-01T16:18:35.896Z,2.80
2019-04-01T16:21:04.881Z,2.10
2019-04-01T16:23:33.634Z,1.92
2019-04-01T16:26:02.520Z,1.90
2019-04-01T16:28:31.292Z,1.60
2019-04-01T16:31:00.134Z,1.70
2019-04-01T16:33:28.998Z,1.85
2019-04-01T16:35:57.795Z,1.65
2019-04-01T16:38:26.566Z,1.70
2019-04-01T16:40:55.519Z,1.72
2019-04-01T16:43:24.282Z,3.00
2019-04-01T16:45:55.899Z,1.98
2019-04-01T16:48:23.653Z,2.15
2019-04-01T16:50:52.494Z,1.92
2019-04-01T16:53:21.336Z,1.85
2019-04-01T16:55:50.148Z,2.27
2019-04-01T16:58:18.934Z,2.80
2019-04-01T17:00:48.953Z,2.90
2019-04-01T17:03:19.377Z,2.70
2019-04-01T17:05:48.189Z,1.82
2019-04-01T17:08:17.012Z,2.15
2019-04-01T17:10:45.817Z,1.80
2019-04-01T17:13:14.679Z,1.95
2019-04-01T17:15:43.463Z,1.80
2019-04-01T17:18:12.285Z,1.72
2019-04-01T17:20:41.089Z,1.90
2019-04-01T17:23:09.858Z,1.92
2019-04-01T17:25:38.659Z,2.10
2019-04-01T17:28:07.503Z,2.10
2019-04-01T17:30:37.282Z,1.80
2019-04-01T17:33:08.358Z,2.22
2019-04-01T17:35:36.449Z,2.15
2019-04-01T17:38:05.219Z,2.02
2019-04-01T17:40:34.298Z,2.08
2019-04-01T17:49:11.733Z,2.33
2019-04-01T17:51:40.613Z,3.85
2019-04-01T17:54:09.424Z,2.40
2019-04-01T17:56:39.116Z,2.50
2019-04-01T17:59:08.191Z,2.87
2019-04-01T18:01:37.299Z,2.90
2019-04-01T18:04:07.153Z,2.98
2019-04-01T18:06:35.961Z,3.77
2019-04-01T18:09:07.418Z,3.95
2019-04-01T18:11:36.186Z,4.47
2019-04-01T18:20:08.080Z,4.65
2019-04-01T18:22:36.938Z,4.85
2019-04-01T18:25:07.837Z,4.83
2019-04-01T18:27:36.678Z,5.45
2019-04-01T18:30:07.763Z,5.50
2019-04-01T18:32:36.543Z,5.97
2019-04-01T18:35:07.298Z,5.05
2019-04-01T18:37:36.116Z,5.10
2019-04-01T18:40:06.301Z,4.62
2019-04-01T18:42:35.106Z,5.25
2019-04-01T18:45:05.117Z,4.50
2019-04-01T18:47:34.049Z,4.62
2019-04-01T18:50:02.868Z,4.97
2019-04-01T18:52:31.667Z,4.58
2019-04-01T18:55:02.065Z,4.90
2019-04-01T18:57:31.038Z,5.45
2019-04-01T18:59:59.967Z,6.03
2019-04-01T19:02:30.204Z,5.87
2019-04-01T19:04:59.066Z,5.97
2019-04-01T19:07:27.878Z,6.50
2019-04-01T19:10:05.971Z,6.58
2019-04-01T19:12:27.195Z,7.00
2019-04-01T19:14:56.013Z,7.22
2019-04-01T19:17:24.861Z,7.45
2019-04-01T19:19:53.940Z,6.83
2019-04-01T19:22:22.782Z,6.90
2019-04-01T19:24:51.613Z,6.25
2019-04-01T19:27:21.939Z,7.05
2019-04-01T19:29:50.849Z,6.87
2019-04-01T19:32:19.734Z,7.15
2019-04-01T19:34:48.486Z,7.67
2019-04-01T19:37:18.285Z,7.58
2019-04-01T19:39:47.303Z,8.00
2019-04-01T19:42:16.043Z,7.72
2019-04-01T19:44:45.353Z,7.17
2019-04-01T19:47:14.224Z,8.03
2019-04-01T19:49:43.103Z,6.75
2019-04-01T19:52:11.977Z,6.60
2019-04-01T19:54:40.890Z,7.35
2019-04-01T19:57:09.678Z,6.25
2019-04-01T19:59:38.570Z,5.62
2019-04-01T20:02:10.401Z,6.35
2019-04-01T20:04:39.282Z,5.45
2019-04-01T20:07:08.147Z,5.17
2019-04-01T20:09:36.993Z,5.40
2019-04-01T20:12:07.513Z,5.47
2019-04-01T20:14:36.322Z,5.50
2019-04-01T20:17:09.868Z,5.97
2019-04-01T20:19:38.460Z,5.60
2019-04-01T20:22:07.255Z,5.17
2019-04-01T20:24:36.140Z,5.58
2019-04-01T20:27:04.994Z,6.35
2019-04-01T20:29:33.823Z,6.33
2019-04-01T20:32:02.693Z,5.45
2019-04-01T20:34:32.336Z,6.12
2019-04-01T20:37:01.442Z,6.00
2019-04-01T20:39:30.249Z,5.92
2019-04-01T20:41:59.091Z,6.17
2019-04-01T20:44:28.078Z,6.80
2019-04-01T20:46:56.998Z,6.28
2019-04-01T20:49:25.829Z,6.40
2019-04-01T20:51:54.715Z,9.23
2019-04-01T20:54:23.524Z,7.37
2019-04-01T20:56:52.333Z,7.55
2019-04-01T20:59:22.571Z,8.15
2019-04-01T21:01:51.323Z,9.15
2019-04-01T21:04:20.102Z,9.28
2019-04-01T21:06:50.032Z,9.45
2019-04-01T21:09:18.992Z,9.23
2019-04-01T21:11:47.775Z,9.10
2019-04-01T21:14:16.627Z,9.83
2019-04-01T21:16:45.440Z,9.78
2019-04-01T21:19:14.260Z,9.50
2019-04-01T21:21:43.073Z,8.90
2019-04-01T21:24:11.843Z,9.15
2019-04-01T21:26:40.659Z,8.95
2019-04-01T21:29:09.577Z,8.15
2019-04-01T21:31:38.452Z,8.55
2019-04-01T21:34:07.823Z,8.73
2019-04-01T21:40:09.673Z,7.20
2019-04-01T21:42:38.495Z,7.60
2019-04-01T21:45:08.869Z,6.78
2019-04-01T21:47:37.796Z,12.75
2019-04-01T21:50:07.144Z,21.05
2019-04-01T21:52:36.073Z,21.57
2019-04-01T21:55:08.265Z,22.55
2019-04-01T21:57:37.423Z,20.05
2019-04-01T22:00:11.059Z,19.07
2019-04-01T22:02:40.403Z,20.25
2019-04-01T22:05:10.380Z,18.00
2019-04-01T22:07:39.531Z,18.10
2019-04-01T22:10:08.647Z,17.00
2019-04-01T22:12:37.616Z,18.45
2019-04-01T22:15:07.103Z,18.20
2019-04-01T22:17:35.850Z,18.12
2019-04-01T22:20:06.244Z,18.70
2019-04-01T22:22:35.104Z,20.85
2019-04-01T22:25:05.025Z,21.05
2019-04-01T22:27:34.022Z,19.35
2019-04-01T22:30:02.825Z,20.55
2019-04-01T22:32:31.682Z,20.90
2019-04-01T22:35:00.450Z,21.00
2019-04-01T22:37:29.376Z,21.97
2019-04-01T22:39:58.175Z,22.45
2019-04-01T22:42:27.253Z,24.27
2019-04-01T22:44:56.499Z,22.25
2019-04-01T22:47:25.232Z,19.62
2019-04-01T22:49:54.069Z,19.82
2019-04-01T22:52:22.871Z,20.05
2019-04-01T22:54:51.687Z,18.95
2019-04-01T22:57:20.476Z,19.05
2019-04-01T22:59:49.548Z,23.10
2019-04-01T23:02:18.452Z,25.10
2019-04-01T23:04:47.383Z,22.50
2019-04-01T23:07:16.100Z,23.25
2019-04-01T23:09:44.950Z,23.42
2019-04-01T23:12:13.803Z,22.37
2019-04-01T23:14:42.587Z,23.02
2019-04-01T23:17:11.416Z,23.35
2019-04-01T23:19:40.170Z,24.72
2019-04-01T23:22:09.028Z,26.10
2019-04-01T23:24:37.862Z,26.02
2019-04-01T23:27:06.654Z,25.00
2019-04-01T23:29:35.487Z,22.48
2019-04-01T23:32:04.442Z,23.87
2019-04-01T23:34:33.213Z,22.25
2019-04-01T23:37:01.982Z,22.13
2019-04-01T23:39:30.778Z,22.17
2019-04-01T23:41:59.784Z,19.60
2019-04-01T23:44:28.741Z,20.88
2019-04-01T23:46:57.516Z,19.85
2019-04-01T23:49:26.338Z,17.70
2019-04-01T23:51:55.124Z,16.10
2019-04-01T23:54:23.962Z,14.85
2019-04-01T23:56:52.756Z,15.50
2019-04-01T23:59:21.587Z,14.20
